Milford, Utah Weather observations

Data are for observation ending at time listed.
 Day   Time    Ave.   Ave.  Ave.  Vector   Max.   Stn.    Total    Solar   Ave.  
  of    of     Air    Rel.  Wind   Wind    Wind   Baro.  Precip.   Rad.    Soil  
Year   Day     Temp.  Hum.  Speed  Dir.    Gust   Pres.                    Temp. 
2016   (MST)    F      %     mph   deg.    mph     mb.     in.     W/m2     F   
------------------------------------------------------------------------------
 236    5:20   59.5    74    1.0   166      4.0   847.6    0.00       0    71.9
 236    5:30   59.7    74    0.5   353      2.8   847.8    0.00       0    71.9
 236    5:40   59.6    74    1.7     7      4.2   848.0    0.00       0    71.9
 236    5:50   59.8    73    1.6    44      4.1   848.2    0.00       0    71.9
 236    6:00   59.3    74    2.4   159      5.3   848.2    0.00       4    71.8
 236    6:10   59.0    76    2.8   159      6.3   848.3    0.00      13    71.8
 236    6:20   58.5    78    1.4   181      4.0   848.4    0.00      21    71.7
 236    6:30   58.4    79    3.1   165      6.3   848.5    0.00      26    71.7
 236    6:40   58.1    80    2.3   166      4.4   848.5    0.00      38    71.7
 236    6:50   58.1    79    3.0   169      4.7   848.6    0.00      50    71.7
 236    7:00   58.4    78    1.9   181      3.9   848.7    0.00      92    71.7
 236    7:10   61.2    70    3.4   176      8.0   848.7    0.00      98    71.6
 236    7:20   61.7    70    4.7   172     11.0   848.9    0.00     103    71.5
 236    7:30   61.5    72    4.0   175      9.0   849.2    0.00      99    71.5
 236    7:40   61.5    75    2.8   187      5.4   849.4    0.00     109    71.5
 236    7:50   61.6    76    2.3   182      5.0   849.4    0.00     123    71.5
 236    8:00   62.0    74    1.9   191      6.0   849.6    0.00     112    71.4
 236    8:10   62.9    70    2.2   183      6.9   849.7    0.00     136    71.4
 236    8:20   63.8    67    2.0   180      4.9   849.9    0.00     154    71.4
 236    8:30   64.1    67    3.2   177      6.4   850.1    0.00     173    71.3
 236    8:40   64.4    67    4.0   175      7.4   850.1    0.00     240    71.3
 236    8:50   65.7    64    2.9   191      6.5   850.3    0.00     288    71.3
 236    9:00   66.9    60    3.4   181      8.5   850.5    0.00     327    71.3
 236    9:10   67.1    62    3.6   178      9.4   850.7    0.00     291    71.3
 236    9:20   67.6    59    5.8   167     10.8   850.8    0.00     296    71.2
 236    9:30   68.0    58    3.2   186      7.7   851.1    0.00     303    71.3
 236    9:40   68.8    57    4.5   173      9.1   851.2    0.00     446    71.3
 236    9:50   70.0    52    4.4   180     10.2   851.3    0.00     468    71.3
 236   10:00   70.5    52    4.5   174     10.6   851.5    0.00     444    71.3
 236   10:10   70.5    51    5.0   174     11.6   851.6    0.00     381    71.2
 236   10:20   70.9    50    3.4   180      8.3   851.7    0.00     391    71.2
 236   10:30   71.0    48    3.8   180      8.0   851.8    0.00     342    71.2
 236   10:40   71.1    49    4.2   176      9.6   851.7    0.00     337    71.2
 236   10:50   71.6    48    3.7   180      9.0   851.7    0.00     395    71.2
 236   11:00   72.7    47    4.1   178      9.8   851.7    0.00     527    71.2
 236   11:10   73.5    45    4.0   176     10.2   851.7    0.00     423    71.2
 236   11:20   73.2    44    3.8   180      9.8   851.6    0.00     305    71.2
 236   11:30   73.2    43    3.2   186      9.0   851.6    0.00     295    71.3
 236   11:40   74.1    42    5.2   169     11.1   851.5    0.00     499    71.3
 236   11:50   75.6    41    4.0   174      9.6   851.5    0.00     670    71.3
 236   12:00   77.3    37    5.1   169     11.6   851.4    0.00     765    71.4
 236   12:10   77.6    36    5.4   168     11.2   851.4    0.00     714    71.4
 236   12:20   78.6    34    4.0   172     10.7   851.4    0.00     817    71.4
 236   12:30   80.1    32    4.1   175      9.6   851.4    0.00     821    71.5
 236   12:40   79.5    32    4.3   177     10.2   851.4    0.00     784    71.5
 236   12:50   79.4    32    5.5   162      9.1   851.4    0.00     776    71.6
 236   13:00   80.4    30    5.0   156      9.3   851.3    0.00     772    71.6
 236   13:10   81.0    30    5.7   148      9.4   851.2    0.00     770    71.6
 236   13:20   81.1    27    5.4   148     10.0   851.2    0.00     750    71.6
 236   13:30   82.1    24    3.5   151      7.2   851.2    0.00     759    71.7
 236   13:40   82.4    23    2.9   141      8.0   851.3    0.00     749    71.8
 236   13:50   82.8    23    3.0   144     10.4   851.2    0.00     740    71.8
 236   14:00   82.8    22    4.6   158      8.7   851.1    0.00     727    71.8
 236   14:10   83.9    22    3.1   162      8.8   851.1    0.00     726    71.9
 236   14:20   83.2    22    4.1   162     10.3   851.1    0.00     634    72.0
 236   14:30   83.6    21    3.5   166      6.9   851.0    0.00     688    72.0
 236   14:40   82.0    23    3.6   178      8.0   850.9    0.00     204    72.1
 236   14:50   80.6    24    2.3   179      6.5   850.9    0.00     146    72.1
 236   15:00   80.5    27    1.2   212      5.2   850.7    0.01      90    72.2
 236   15:10   75.0    38    2.4   236      8.2   850.2    0.01     104    72.3
 236   15:20   76.7    31    1.8   213      5.2   849.5    0.00     299    72.5
 236   15:30   80.2    28    1.7   158      4.3   849.1    0.00     436    72.5
 236   15:40   81.6    26    0.9   176      3.3   849.1    0.00     293    72.6
 236   15:50   81.5    26    1.8   167      5.1   849.3    0.00     279    72.6
 236   16:00   81.2    26    3.2   170      6.1   849.5    0.00     274    72.7
 236   16:10   80.7    26    3.6   171      7.8   849.5    0.00     241    72.7
 236   16:20   80.5    27    2.6   182      7.7   849.5    0.00     178    72.8
 236   16:30   80.2    28    3.4   175      6.7   849.4    0.00     157    72.8
 236   16:40   80.3    28    3.2   174      6.4   849.3    0.00     152    72.9
 236   16:50   80.2    28    3.5   178      6.5   849.4    0.00     150    72.9
 236   17:00   80.3    29    1.5   189      4.9   849.4    0.00     138    73.0
 236   17:10   80.0    29    1.6   186      4.1   849.4    0.00     119    73.0
 236   17:20   79.6    28    2.2   182      7.1   849.5    0.00      91    73.1
 236   17:30   79.4    27    1.8   187      4.2   849.4    0.00      72    73.1
 236   17:40   79.1    28    1.9   189      4.4   849.3    0.00      69    73.2
 236   17:50   78.9    28    2.0   183      4.3   849.3    0.00      68    73.2
 236   18:00   78.2    31    1.5   190      3.4   849.3    0.00      67    73.3
 236   18:10   77.6    31    1.9   190      4.5   849.2    0.00      59    73.3
 236   18:20   77.5    31    1.9   190      6.6   849.1    0.00      48    73.3
 236   18:30   77.1    33    3.6   187      7.2   849.1    0.00      43    73.3
 236   18:40   76.5    33    3.5   188      7.4   849.0    0.00      29    73.4
 236   18:50   75.5    33    2.6   191      8.2   849.1    0.00      19    73.3
 236   19:00   74.9    34    1.5   200      4.1   849.1    0.00       9    73.4
 236   19:10   74.4    33    0.9   203      2.8   849.1    0.00       5    73.5
 236   19:20   73.5    34    1.7   178      5.6   849.2    0.00       0    73.5
 236   19:30   72.7    35    2.5     5     12.9   849.7    0.00       0    73.4
 236   19:40   72.6    33    8.2    13     18.6   850.1    0.00       0    73.5
 236   19:50   71.7    36    5.8    38     12.6   849.7    0.00       0    73.5
 236   20:00   70.9    38    2.0    98      8.4   849.9    0.00       0    73.5
 236   20:10   70.6    39    2.3    11      5.8   850.2    0.00       0    73.5
 236   20:20   70.3    41    2.7     3      7.2   850.4    0.00       0    73.5
 236   20:30   70.9    39    2.4    11      5.8   850.5    0.00       0    73.5
 236   20:40   71.0    39    1.0    28      4.2   850.7    0.00       0    73.5
 236   20:50   70.5    41    0.2   225      1.5   850.8    0.00       0    73.5
 236   21:00   69.9    42    0.7   276      1.9   851.0    0.00       0    73.4
 236   21:10   69.3    45    1.6   234      3.3   851.2    0.00       0    73.4
 236   21:20   68.7    46    1.3   215      2.9   851.5    0.00       0    73.4
 236   21:30   69.0    43    1.9   216      5.3   851.6    0.00       0    73.4
 236   21:40   69.2    42    4.0   191      8.1   851.3    0.00       0    73.4
 236   21:50   68.5    44    5.6   182     10.8   850.4    0.00       0    73.3
 236   22:00   68.3    42    3.4   156      9.5   850.6    0.00       0    73.3
 236   22:10   70.2    33    2.2   143      9.6   850.7    0.00       0    73.3
 236   22:20   68.6    43    1.8   344      5.0   850.7    0.00       0    73.3
 236   22:30   66.7    46    1.5   244      3.9   850.6    0.00       0    73.3
 236   22:40   65.1    50    1.9   235      5.7   850.4    0.00       0    73.3
 236   22:50   64.0    53    1.6   255      4.5   850.2    0.00       0    73.3
 236   23:00   63.5    53    0.8   266      3.6   850.0    0.00       0    73.2
 236   23:10   63.5    51    2.1   245      4.5   849.8    0.00       0    73.2
 236   23:20   64.2    47    1.8   236      4.6   849.7    0.00       0    73.2
 236   23:30   64.8    45    0.8   241      2.5   849.7    0.00       0    73.2
 236   23:40   64.6    45    1.1   242      2.9   849.8    0.00       0    73.2
 236   23:50   64.3    45    0.3   213      2.5   849.8    0.00       0    73.2
 237    0:00   63.2    49    1.3   177      5.8   850.0    0.00       0    73.1
 237    0:10   61.5    53    1.7   228      4.2   850.0    0.00       0    73.1
 237    0:20   62.6    49    1.7   185      5.6   850.0    0.00       0    73.1
 237    0:30   62.3    51    2.5   196      6.4   850.1    0.00       0    73.0
 237    0:40   61.9    52    1.2   211      5.5   850.1    0.00       0    73.0
 237    0:50   61.7    51    2.2   200      5.0   850.1    0.00       0    73.0
 237    1:00   60.8    54    1.3   181      3.2   850.2    0.00       0    73.0
 237    1:10   59.7    56    0.3   215      1.5   850.1    0.00       0    72.9
 237    1:20   59.4    58    0.8   237      2.3   849.9    0.00       0    72.9
 237    1:30   59.9    57    1.5   195      3.9   849.8    0.00       0    72.9
 237    1:40   59.3    59    1.6   222      3.7   849.7    0.00       0    72.9
 237    1:50   59.2    59    1.6   204      4.6   849.7    0.00       0    72.8
 237    2:00   58.4    62    1.2   190      4.2   849.7    0.00       0    72.8
 237    2:10   58.0    62    1.8   194      3.9   849.6    0.00       0    72.8
 237    2:20   58.2    61    2.2   192      5.0   849.7    0.00       0    72.7
 237    2:30   58.4    61    2.9   190      6.6   849.6    0.00       0    72.7
 237    2:40   58.2    62    2.1   204      4.5   849.6    0.00       0    72.7
 237    2:50   57.6    65    2.1   219      4.3   849.6    0.00       0    72.6
 237    3:00   57.5    64    1.5   236      3.7   849.4    0.00       0    72.6
 237    3:10   57.7    63    1.8   230      4.2   849.4    0.00       0    72.6
 237    3:20   57.4    64    2.1   241      3.9   849.4    0.00       0    72.5
 237    3:30   56.8    65    1.8   229      4.4   849.4    0.01       0    72.4
 237    3:40   57.1    62    2.1   239      4.7   849.3    0.00       0    72.4
 237    3:50   57.1    62    2.6   245      5.1   849.2    0.01       0    72.4
 237    4:00   57.3    59    2.1   244      4.7   849.0    0.00       0    72.4
 237    4:10   56.9    58    2.3   236      6.0   848.9    0.00       0    72.4
 237    4:20   57.0    58    2.2   241      4.2   848.8    0.00       0    72.3
 237    4:30   57.5    57    1.9   234      4.2   848.9    0.00       0    72.3
 237    4:40   57.7    57    1.8   239      4.5   848.9    0.00       0    72.3
 237    4:50   57.5    58    1.8   240      5.0   849.0    0.00       0    72.2
 237    5:00   57.1    59    1.8   224      5.3   849.1    0.00       0    72.2
 237    5:10   57.2    58    1.6   226      4.5   849.2    0.00       0    72.2

Return to Milford, Utah graphs page.


Western Regional Climate Center,wrcc@dri.edu